createdAt,value
2022-12-03T00:00:12.794Z,20.41
2022-12-03T00:02:39.776Z,20.41
2022-12-03T00:05:06.462Z,20.45
2022-12-03T00:07:32.814Z,20.44
2022-12-03T00:09:59.143Z,20.46
2022-12-03T00:12:25.399Z,20.47
2022-12-03T00:14:53.126Z,20.48
2022-12-03T00:17:19.462Z,20.47
2022-12-03T00:19:45.744Z,20.39
2022-12-03T00:22:12.922Z,20.32
2022-12-03T00:24:39.503Z,20.34
2022-12-03T00:27:05.825Z,20.39
2022-12-03T00:29:32.154Z,20.41
2022-12-03T00:31:59.888Z,20.42
2022-12-03T00:34:26.202Z,20.42
2022-12-03T00:36:52.590Z,20.43
2022-12-03T00:39:18.907Z,20.43
2022-12-03T00:41:45.222Z,20.44
2022-12-03T00:44:11.568Z,20.44
2022-12-03T00:46:38.103Z,20.47
2022-12-03T00:49:05.724Z,20.36
2022-12-03T00:51:32.010Z,20.30
2022-12-03T00:53:58.328Z,20.34
2022-12-03T00:56:24.616Z,20.40
2022-12-03T00:58:50.895Z,20.40
2022-12-03T01:01:17.267Z,20.42
2022-12-03T01:03:43.714Z,20.41
2022-12-03T01:06:11.257Z,20.42
2022-12-03T01:08:37.644Z,20.42
2022-12-03T01:11:04.137Z,20.42
2022-12-03T01:13:30.437Z,20.27
2022-12-03T01:15:56.836Z,20.27
2022-12-03T01:18:23.165Z,20.32
2022-12-03T01:20:49.470Z,20.35
2022-12-03T01:23:17.004Z,20.35
2022-12-03T01:25:43.298Z,20.34
2022-12-03T01:28:09.555Z,20.35
2022-12-03T01:30:35.901Z,20.36
2022-12-03T01:33:02.239Z,20.36
2022-12-03T01:35:28.656Z,20.38
2022-12-03T01:37:54.978Z,20.36
2022-12-03T01:40:22.763Z,20.27
2022-12-03T01:42:49.079Z,20.21
2022-12-03T01:45:20.779Z,20.26
2022-12-03T01:47:47.143Z,20.29
2022-12-03T01:50:17.340Z,20.32
2022-12-03T01:52:44.052Z,20.33
2022-12-03T01:55:13.520Z,20.33
2022-12-03T01:57:42.240Z,20.33
2022-12-03T02:00:13.120Z,20.33
2022-12-03T02:02:39.441Z,20.34
2022-12-03T02:05:06.884Z,20.33
2022-12-03T02:07:33.673Z,20.18
2022-12-03T02:10:00.817Z,20.19
2022-12-03T02:12:29.109Z,20.24
2022-12-03T02:14:56.978Z,20.26
2022-12-03T02:17:23.406Z,20.27
2022-12-03T02:19:49.830Z,20.28
2022-12-03T02:22:23.133Z,20.27
2022-12-03T02:24:53.603Z,20.29
2022-12-03T02:27:21.475Z,20.30
2022-12-03T02:29:58.391Z,20.26
2022-12-03T02:32:24.690Z,20.16
2022-12-03T02:34:51.326Z,20.20
2022-12-03T02:37:20.344Z,20.24
2022-12-03T02:39:48.321Z,20.24
2022-12-03T02:42:14.611Z,20.25
2022-12-03T02:44:42.327Z,20.25
2022-12-03T02:47:09.155Z,20.27
2022-12-03T02:49:35.504Z,20.26
2022-12-03T02:52:01.899Z,20.27
2022-12-03T02:54:28.297Z,20.30
2022-12-03T02:56:54.588Z,20.18
2022-12-03T02:59:21.046Z,20.12
2022-12-03T03:01:48.785Z,20.14
2022-12-03T03:04:15.275Z,20.20
2022-12-03T03:06:41.742Z,20.20
2022-12-03T03:09:08.133Z,20.22
2022-12-03T03:11:34.566Z,20.24
2022-12-03T03:14:01.319Z,20.23
2022-12-03T03:16:27.976Z,20.23
2022-12-03T03:18:55.630Z,20.24
2022-12-03T03:21:21.998Z,20.24
2022-12-03T03:23:48.330Z,20.15
2022-12-03T03:26:14.808Z,20.11
2022-12-03T03:28:42.702Z,20.15
2022-12-03T03:31:11.113Z,20.16
2022-12-03T03:33:39.276Z,20.16
2022-12-03T03:36:07.431Z,20.18
2022-12-03T03:38:33.922Z,20.19
2022-12-03T03:41:01.916Z,20.22
2022-12-03T03:43:29.597Z,20.22
2022-12-03T03:45:56.109Z,20.21
2022-12-03T03:48:22.571Z,20.19
2022-12-03T03:50:49.615Z,20.07
2022-12-03T03:53:17.701Z,20.08
2022-12-03T03:55:44.336Z,20.13
2022-12-03T03:58:10.889Z,20.16
2022-12-03T04:00:37.308Z,20.14
2022-12-03T04:03:03.661Z,20.19
2022-12-03T04:05:30.171Z,20.17
2022-12-03T04:07:56.649Z,20.16
2022-12-03T04:10:24.353Z,20.16
2022-12-03T04:12:50.644Z,20.16
2022-12-03T04:15:17.056Z,20.21
2022-12-03T04:17:43.365Z,20.17
2022-12-03T04:20:10.130Z,20.09
2022-12-03T04:22:36.403Z,20.06
2022-12-03T04:25:02.769Z,20.12
2022-12-03T04:27:30.381Z,20.15
2022-12-03T04:29:56.836Z,20.13
2022-12-03T04:32:23.119Z,20.19
2022-12-03T04:34:49.418Z,20.16
2022-12-03T04:37:15.691Z,20.16
2022-12-03T04:39:42.051Z,20.15
2022-12-03T04:42:08.418Z,20.18
2022-12-03T04:44:36.012Z,20.17
2022-12-03T04:47:03.823Z,20.12
2022-12-03T04:49:30.571Z,20.02
2022-12-03T04:51:56.880Z,20.07
2022-12-03T04:54:23.212Z,20.10
2022-12-03T04:56:49.551Z,20.10
2022-12-03T04:59:16.723Z,20.10
2022-12-03T05:01:44.998Z,20.10
2022-12-03T05:04:11.430Z,20.12
2022-12-03T05:06:37.845Z,20.13
2022-12-03T05:09:04.136Z,20.13
2022-12-03T05:11:30.392Z,20.11
2022-12-03T05:13:56.681Z,20.14
2022-12-03T05:16:23.011Z,20.14
2022-12-03T05:18:50.755Z,20.05
2022-12-03T05:21:17.059Z,19.99
2022-12-03T05:23:43.621Z,20.03
2022-12-03T05:26:10.260Z,20.07
2022-12-03T05:28:36.610Z,20.08
2022-12-03T05:31:02.963Z,20.09
2022-12-03T05:33:29.387Z,20.08
2022-12-03T05:35:57.003Z,20.08
2022-12-03T05:38:23.363Z,20.10
2022-12-03T05:40:49.688Z,20.10
2022-12-03T05:43:15.975Z,20.13
2022-12-03T05:45:42.869Z,20.12
2022-12-03T05:48:10.820Z,20.01
2022-12-03T05:50:38.245Z,19.97
2022-12-03T05:53:06.105Z,20.00
2022-12-03T05:55:32.751Z,20.03
2022-12-03T05:57:59.085Z,20.04
2022-12-03T06:00:26.757Z,20.03
2022-12-03T06:02:53.536Z,20.08
2022-12-03T06:05:20.417Z,20.05
2022-12-03T06:07:47.258Z,20.06
2022-12-03T06:10:15.837Z,20.05
2022-12-03T06:12:42.176Z,20.07
2022-12-03T06:15:09.332Z,19.99
2022-12-03T06:17:35.604Z,19.94
2022-12-03T06:20:02.297Z,19.94
2022-12-03T06:22:28.756Z,19.97
2022-12-03T06:24:55.308Z,19.98
2022-12-03T06:27:23.050Z,19.98
2022-12-03T06:29:49.361Z,19.97
2022-12-03T06:32:15.634Z,19.98
2022-12-03T06:34:41.935Z,20.00
2022-12-03T06:37:08.336Z,19.99
2022-12-03T06:39:34.731Z,20.01
2022-12-03T06:42:01.019Z,20.03
2022-12-03T06:44:28.665Z,20.01
2022-12-03T06:46:55.088Z,19.92
2022-12-03T06:49:21.453Z,19.89
2022-12-03T06:51:47.819Z,19.93
2022-12-03T06:54:14.246Z,19.93
2022-12-03T06:56:45.095Z,19.94
2022-12-03T06:59:11.914Z,19.98
2022-12-03T07:01:39.962Z,19.95
2022-12-03T07:04:06.265Z,19.99
2022-12-03T07:06:32.593Z,19.97
2022-12-03T07:08:59.029Z,19.98
2022-12-03T07:11:25.404Z,19.97
2022-12-03T07:13:51.696Z,19.97
2022-12-03T07:16:18.066Z,19.94
2022-12-03T07:18:45.687Z,19.86
2022-12-03T07:21:11.983Z,19.90
2022-12-03T07:23:38.402Z,19.92
2022-12-03T07:26:04.885Z,19.93
2022-12-03T07:28:31.165Z,19.95
2022-12-03T07:30:57.544Z,19.95
2022-12-03T07:33:23.864Z,19.96
2022-12-03T07:35:51.486Z,19.94
2022-12-03T07:38:17.787Z,19.96
2022-12-03T07:40:44.183Z,19.95
2022-12-03T07:43:10.653Z,19.95
2022-12-03T07:45:36.996Z,19.83
2022-12-03T07:48:03.489Z,19.86
2022-12-03T07:50:29.824Z,19.89
2022-12-03T07:52:57.515Z,19.92
2022-12-03T07:55:23.825Z,19.92
2022-12-03T07:57:50.245Z,19.93
2022-12-03T08:00:17.090Z,19.93
2022-12-03T08:02:43.436Z,19.92
2022-12-03T08:05:09.795Z,19.95
2022-12-03T08:07:36.148Z,19.94
2022-12-03T08:10:03.976Z,19.87
2022-12-03T08:12:30.405Z,19.84
2022-12-03T08:14:56.812Z,19.87
2022-12-03T08:17:23.523Z,19.89
2022-12-03T08:19:49.865Z,19.89
2022-12-03T08:22:16.300Z,19.89
2022-12-03T08:24:42.697Z,19.90
2022-12-03T08:27:12.141Z,19.88
2022-12-03T08:29:39.902Z,19.92
2022-12-03T08:32:06.433Z,19.92
2022-12-03T08:34:38.954Z,19.87
2022-12-03T08:37:08.723Z,19.78
2022-12-03T08:39:35.877Z,19.80
2022-12-03T08:42:13.569Z,19.83
2022-12-03T08:44:41.583Z,19.85
2022-12-03T08:47:12.086Z,19.86
2022-12-03T08:49:38.841Z,19.85
2022-12-03T08:52:11.017Z,19.86
2022-12-03T08:54:37.333Z,19.89
2022-12-03T08:57:06.667Z,19.86
2022-12-03T08:59:32.948Z,19.84
2022-12-03T09:02:00.710Z,19.83
2022-12-03T09:04:29.227Z,19.79
2022-12-03T09:06:56.138Z,19.70
2022-12-03T09:09:22.804Z,19.76
2022-12-03T09:11:49.739Z,19.78
2022-12-03T09:14:18.783Z,19.82
2022-12-03T09:16:45.702Z,19.83
2022-12-03T09:19:13.407Z,19.83
2022-12-03T09:21:39.698Z,19.83
2022-12-03T09:24:06.160Z,19.84
2022-12-03T09:26:32.461Z,19.86
2022-12-03T09:28:58.739Z,19.84
2022-12-03T09:31:25.126Z,19.84
2022-12-03T09:33:51.635Z,19.81
2022-12-03T09:36:19.212Z,19.71
2022-12-03T09:38:47.955Z,19.75
2022-12-03T09:41:14.636Z,19.79
2022-12-03T09:44:03.171Z,19.78
2022-12-03T09:46:27.363Z,19.80
2022-12-03T09:48:53.853Z,19.78
2022-12-03T09:51:21.522Z,19.80
2022-12-03T09:53:48.001Z,19.82
2022-12-03T09:56:18.018Z,19.86
2022-12-03T09:58:44.294Z,19.86
2022-12-03T10:01:12.964Z,19.86
2022-12-03T10:03:43.046Z,19.84
2022-12-03T10:06:10.236Z,19.72
2022-12-03T10:08:37.825Z,19.74
2022-12-03T10:11:04.233Z,19.77
2022-12-03T10:13:31.345Z,19.81
2022-12-03T10:15:59.963Z,19.82
2022-12-03T10:18:30.557Z,19.83
2022-12-03T10:20:57.598Z,19.82
2022-12-03T10:23:25.062Z,19.81
2022-12-03T10:25:54.188Z,19.82
2022-12-03T10:28:27.651Z,19.81
2022-12-03T10:30:54.722Z,19.82
2022-12-03T10:33:21.076Z,19.75
2022-12-03T10:35:47.405Z,19.72
2022-12-03T10:38:19.270Z,19.74
2022-12-03T10:40:45.874Z,19.78
2022-12-03T10:43:14.807Z,19.77
2022-12-03T10:45:41.357Z,19.76
2022-12-03T10:48:11.794Z,19.77
2022-12-03T10:50:45.796Z,19.78
2022-12-03T10:53:12.301Z,19.78
2022-12-03T10:55:41.810Z,19.77
2022-12-03T10:58:13.816Z,19.76
2022-12-03T11:00:41.428Z,19.66
2022-12-03T11:03:16.789Z,19.71
2022-12-03T11:05:43.079Z,19.73
2022-12-03T11:08:14.710Z,19.71
2022-12-03T11:10:41.513Z,19.72
2022-12-03T11:13:17.672Z,19.76
2022-12-03T11:15:45.327Z,19.74
2022-12-03T11:18:11.755Z,19.74
2022-12-03T11:20:47.981Z,19.76
2022-12-03T11:23:14.345Z,19.76
2022-12-03T11:25:48.200Z,19.75
2022-12-03T11:28:24.449Z,19.64
2022-12-03T11:30:58.468Z,19.64
2022-12-03T11:33:25.482Z,19.69
2022-12-03T11:36:06.655Z,19.69
2022-12-03T11:38:47.346Z,19.70
2022-12-03T11:41:18.672Z,19.70
2022-12-03T11:43:54.827Z,19.72
2022-12-03T11:46:24.388Z,19.76
2022-12-03T11:48:53.282Z,19.73
2022-12-03T11:51:21.240Z,19.74
2022-12-03T11:53:48.542Z,19.76
2022-12-03T11:56:16.812Z,19.76
2022-12-03T11:58:43.095Z,19.76
2022-12-03T12:01:09.551Z,19.69
2022-12-03T12:03:43.169Z,19.66
2022-12-03T12:06:10.343Z,19.71
2022-12-03T12:08:38.071Z,19.72
2022-12-03T12:11:15.606Z,19.71
2022-12-03T12:13:50.795Z,19.74
2022-12-03T12:16:27.031Z,19.74
2022-12-03T12:18:55.546Z,19.74
2022-12-03T12:21:32.570Z,19.72
2022-12-03T12:24:08.352Z,19.64
2022-12-03T12:26:34.527Z,19.68
2022-12-03T12:29:00.660Z,19.70
2022-12-03T12:31:27.141Z,19.69
2022-12-03T12:33:54.868Z,19.71
2022-12-03T12:36:21.163Z,19.72
2022-12-03T12:38:47.454Z,19.72
2022-12-03T12:41:13.780Z,19.72
2022-12-03T12:43:40.455Z,19.74
2022-12-03T12:46:38.622Z,19.74
2022-12-03T12:48:59.693Z,19.73
2022-12-03T12:51:26.331Z,19.62
2022-12-03T12:53:52.635Z,19.64
2022-12-03T12:56:22.540Z,19.66
2022-12-03T12:58:48.856Z,19.70
2022-12-03T13:01:19.814Z,19.71
2022-12-03T13:03:49.357Z,19.72
2022-12-03T13:06:17.512Z,19.70
2022-12-03T13:08:45.445Z,19.71
2022-12-03T13:11:15.829Z,19.70
2022-12-03T13:13:44.255Z,19.72
2022-12-03T13:16:12.396Z,19.70
2022-12-03T13:18:40.079Z,19.73
2022-12-03T13:21:11.185Z,19.71
2022-12-03T13:23:39.428Z,19.62
2022-12-03T13:26:30.501Z,19.65
2022-12-03T13:29:02.821Z,19.67
2022-12-03T13:31:31.450Z,19.69
2022-12-03T13:33:59.530Z,19.68
2022-12-03T13:36:34.645Z,19.69
2022-12-03T13:39:02.193Z,19.71
2022-12-03T13:41:28.450Z,19.69
2022-12-03T13:43:54.751Z,19.64
2022-12-03T13:46:21.229Z,19.60
2022-12-03T13:48:47.506Z,19.63
2022-12-03T13:51:19.550Z,19.66
2022-12-03T13:53:45.896Z,19.65
2022-12-03T13:56:20.276Z,19.65
2022-12-03T13:58:46.616Z,19.66
2022-12-03T14:01:12.999Z,19.67
2022-12-03T14:03:39.357Z,19.69
2022-12-03T14:06:06.433Z,19.67
2022-12-03T14:08:32.759Z,19.68
2022-12-03T14:11:00.892Z,19.64
2022-12-03T14:13:28.847Z,19.57
2022-12-03T14:15:55.406Z,19.61
2022-12-03T14:18:22.007Z,19.62
2022-12-03T14:20:48.377Z,19.64
2022-12-03T14:23:14.884Z,19.65
2022-12-03T14:25:41.239Z,19.66
2022-12-03T14:28:07.572Z,19.66
2022-12-03T14:30:35.189Z,19.66
2022-12-03T14:33:01.473Z,19.67
2022-12-03T14:35:28.060Z,19.68
2022-12-03T14:37:54.467Z,19.67
2022-12-03T14:40:21.891Z,19.68
2022-12-03T14:42:48.624Z,19.57
2022-12-03T14:45:15.266Z,19.56
2022-12-03T14:47:42.918Z,19.63
2022-12-03T14:50:09.570Z,19.64
2022-12-03T14:52:35.847Z,19.62
2022-12-03T14:55:02.168Z,19.61
2022-12-03T14:57:28.451Z,19.62
2022-12-03T14:59:54.939Z,19.62
2022-12-03T15:02:21.459Z,19.63
2022-12-03T15:04:49.113Z,19.63
2022-12-03T15:07:15.411Z,19.64
2022-12-03T15:09:41.839Z,19.65
2022-12-03T15:12:08.174Z,19.59
2022-12-03T15:14:34.515Z,19.53
2022-12-03T15:17:00.881Z,19.55
2022-12-03T15:19:27.213Z,19.59
2022-12-03T15:21:54.933Z,19.59
2022-12-03T15:24:21.258Z,19.59
2022-12-03T15:26:47.551Z,19.60
2022-12-03T15:29:13.858Z,19.61
2022-12-03T15:31:40.184Z,19.62
2022-12-03T15:34:06.542Z,19.61
2022-12-03T15:36:32.802Z,19.62
2022-12-03T15:39:00.423Z,19.62
2022-12-03T15:41:26.853Z,19.64
2022-12-03T15:43:53.129Z,19.62
2022-12-03T15:46:19.521Z,19.60
2022-12-03T15:48:45.885Z,19.54
2022-12-03T15:51:12.228Z,19.52
2022-12-03T15:53:39.028Z,19.55
2022-12-03T15:56:06.939Z,19.59
2022-12-03T15:58:33.268Z,19.59
2022-12-03T16:00:59.600Z,19.61
2022-12-03T16:03:26.090Z,19.60
2022-12-03T16:05:52.419Z,19.61
2022-12-03T16:08:18.881Z,19.60
2022-12-03T16:10:45.183Z,19.60
2022-12-03T16:13:12.847Z,19.50
2022-12-03T16:15:39.187Z,19.50
2022-12-03T16:18:05.539Z,19.54
2022-12-03T16:20:31.909Z,19.54
2022-12-03T16:22:58.229Z,19.57
2022-12-03T16:25:24.769Z,19.56
2022-12-03T16:27:51.074Z,19.59
2022-12-03T16:30:18.676Z,19.59
2022-12-03T16:32:44.970Z,19.57
2022-12-03T16:35:11.284Z,19.59
2022-12-03T16:37:37.622Z,19.60
2022-12-03T16:40:04.173Z,19.59
2022-12-03T16:42:30.448Z,19.59
2022-12-03T16:44:56.820Z,19.58
2022-12-03T16:47:28.044Z,19.49
2022-12-03T16:49:57.025Z,19.52
2022-12-03T16:52:23.368Z,19.54
2022-12-03T16:54:49.708Z,19.56
2022-12-03T16:57:16.165Z,19.55
2022-12-03T16:59:42.483Z,19.54
2022-12-03T17:02:10.100Z,19.58
2022-12-03T17:04:37.693Z,19.56
2022-12-03T17:07:03.980Z,19.58
2022-12-03T17:09:30.261Z,19.60
2022-12-03T17:11:56.533Z,19.56
2022-12-03T17:14:22.906Z,19.47
2022-12-03T17:16:49.385Z,19.50
2022-12-03T17:19:16.141Z,19.52
2022-12-03T17:21:44.288Z,19.54
2022-12-03T17:24:10.594Z,19.55
2022-12-03T17:26:36.925Z,19.55
2022-12-03T17:29:03.365Z,19.57
2022-12-03T17:31:29.785Z,19.54
2022-12-03T17:33:56.174Z,19.55
2022-12-03T17:36:22.618Z,19.55
2022-12-03T17:38:50.260Z,19.54
2022-12-03T17:41:16.670Z,19.53
2022-12-03T17:43:42.976Z,19.46
2022-12-03T17:46:09.367Z,19.45
2022-12-03T17:48:35.863Z,19.48
2022-12-03T17:51:02.169Z,19.49
2022-12-03T17:53:28.605Z,19.49
2022-12-03T17:55:56.223Z,19.49
2022-12-03T17:58:22.567Z,19.52
2022-12-03T18:00:48.970Z,19.50
2022-12-03T18:03:15.276Z,19.49
2022-12-03T18:05:41.576Z,19.51
2022-12-03T18:08:07.944Z,19.53
2022-12-03T18:10:34.340Z,19.52
2022-12-03T18:13:02.501Z,19.47
2022-12-03T18:15:29.012Z,19.41
2022-12-03T18:17:55.338Z,19.45
2022-12-03T18:20:21.741Z,19.47
2022-12-03T18:22:48.069Z,19.46
2022-12-03T18:25:14.501Z,19.47
2022-12-03T18:27:40.772Z,19.49
2022-12-03T18:30:08.910Z,19.49
2022-12-03T18:32:35.343Z,19.50
2022-12-03T18:35:01.624Z,19.50
2022-12-03T18:37:28.719Z,19.51
2022-12-03T18:39:56.296Z,19.52
2022-12-03T18:42:23.309Z,19.52
2022-12-03T18:44:50.634Z,19.52
2022-12-03T18:47:19.526Z,19.43
2022-12-03T18:49:45.957Z,19.42
2022-12-03T18:52:12.806Z,19.45
2022-12-03T18:54:39.480Z,19.46
2022-12-03T18:57:05.831Z,19.45
2022-12-03T18:59:32.142Z,19.47
2022-12-03T19:01:58.535Z,19.46
2022-12-03T19:04:26.475Z,19.50
2022-12-03T19:06:53.017Z,19.48
2022-12-03T19:09:19.325Z,19.50
2022-12-03T19:11:45.634Z,19.50
2022-12-03T19:14:11.926Z,19.48
2022-12-03T19:16:38.754Z,19.47
2022-12-03T19:19:05.548Z,19.46
2022-12-03T19:21:33.994Z,19.37
2022-12-03T19:24:23.262Z,19.40
2022-12-03T19:26:47.039Z,19.45
2022-12-03T19:29:13.358Z,19.44
2022-12-03T19:31:39.720Z,19.46
2022-12-03T19:34:06.127Z,19.42
2022-12-03T19:36:33.872Z,19.45
2022-12-03T19:39:00.648Z,19.45
2022-12-03T19:41:28.419Z,19.48
2022-12-03T19:43:55.436Z,19.47
2022-12-03T19:46:22.896Z,19.47
2022-12-03T19:48:49.356Z,19.48
2022-12-03T19:51:33.692Z,19.44
2022-12-03T19:54:02.733Z,19.36
2022-12-03T19:56:29.043Z,19.39
2022-12-03T19:58:55.770Z,19.41
2022-12-03T20:01:23.347Z,19.42
2022-12-03T20:03:50.958Z,19.42
2022-12-03T20:06:18.628Z,19.42
2022-12-03T20:08:45.525Z,19.44
2022-12-03T20:11:14.267Z,19.43
2022-12-03T20:13:41.021Z,19.44
2022-12-03T20:16:08.358Z,19.43
2022-12-03T20:18:34.981Z,19.44
2022-12-03T20:21:01.660Z,19.45
2022-12-03T20:23:28.090Z,19.37
2022-12-03T20:25:54.496Z,19.34
2022-12-03T20:28:22.140Z,19.40
2022-12-03T20:30:56.827Z,19.39
2022-12-03T20:33:23.139Z,19.41
2022-12-03T20:35:51.119Z,19.39
2022-12-03T20:38:17.396Z,19.40
2022-12-03T20:40:43.868Z,19.40
2022-12-03T20:43:10.170Z,19.42
2022-12-03T20:45:37.854Z,19.43
2022-12-03T20:48:04.408Z,19.41
2022-12-03T20:50:30.743Z,19.43
2022-12-03T20:53:22.669Z,19.41
2022-12-03T20:55:43.279Z,19.31
2022-12-03T20:58:09.684Z,19.34
2022-12-03T21:00:36.049Z,19.36
2022-12-03T21:03:03.736Z,19.39
2022-12-03T21:05:30.087Z,19.39
2022-12-03T21:07:56.493Z,19.39
2022-12-03T21:10:22.831Z,19.39
2022-12-03T21:12:49.298Z,19.39
2022-12-03T21:15:15.797Z,19.40
2022-12-03T21:17:42.098Z,19.41
2022-12-03T21:20:09.932Z,19.41
2022-12-03T21:22:36.230Z,19.41
2022-12-03T21:25:02.554Z,19.41
2022-12-03T21:27:28.850Z,19.34
2022-12-03T21:29:55.588Z,19.32
2022-12-03T21:32:22.184Z,19.35
2022-12-03T21:34:48.495Z,19.36
2022-12-03T21:37:16.066Z,19.38
2022-12-03T21:39:42.412Z,19.36
2022-12-03T21:42:34.947Z,19.39
2022-12-03T21:44:55.109Z,19.37
2022-12-03T21:47:21.548Z,19.37
2022-12-03T21:49:47.863Z,19.36
2022-12-03T21:52:14.207Z,19.36
2022-12-03T21:54:41.786Z,19.37
2022-12-03T21:57:08.089Z,19.38
2022-12-03T21:59:34.410Z,19.38
2022-12-03T22:02:00.899Z,19.28
2022-12-03T22:04:27.204Z,19.30
2022-12-03T22:06:54.291Z,19.32
2022-12-03T22:09:26.287Z,19.33
2022-12-03T22:11:54.371Z,19.34
2022-12-03T22:14:20.661Z,19.34
2022-12-03T22:16:47.131Z,19.37
2022-12-03T22:19:13.410Z,19.38
2022-12-03T22:21:39.712Z,19.39
2022-12-03T22:24:06.187Z,19.37
2022-12-03T22:26:35.133Z,19.38
2022-12-03T22:29:02.932Z,19.35
2022-12-03T22:31:29.321Z,19.25
2022-12-03T22:33:55.782Z,19.27
2022-12-03T22:36:22.161Z,19.31
2022-12-03T22:38:48.552Z,19.32
2022-12-03T22:41:15.158Z,19.32
2022-12-03T22:43:41.473Z,19.32
2022-12-03T22:46:09.312Z,19.33
2022-12-03T22:48:36.254Z,19.37
2022-12-03T22:51:03.038Z,19.35
2022-12-03T22:53:29.349Z,19.35
2022-12-03T22:55:56.347Z,19.36
2022-12-03T22:58:22.870Z,19.36
2022-12-03T23:00:49.227Z,19.37
2022-12-03T23:03:17.293Z,19.36
2022-12-03T23:05:43.710Z,19.24
2022-12-03T23:08:11.336Z,19.27
2022-12-03T23:10:38.880Z,19.29
2022-12-03T23:13:05.736Z,19.29
2022-12-03T23:15:32.201Z,19.30
2022-12-03T23:17:58.587Z,19.30
2022-12-03T23:20:26.600Z,19.30
2022-12-03T23:22:53.239Z,19.29
2022-12-03T23:25:20.067Z,19.32
2022-12-03T23:27:46.819Z,19.33
2022-12-03T23:30:13.985Z,19.33
2022-12-03T23:32:40.702Z,19.35
2022-12-03T23:35:07.416Z,19.35
2022-12-03T23:37:35.171Z,19.34
2022-12-03T23:40:01.498Z,19.25
2022-12-03T23:42:27.787Z,19.25
2022-12-03T23:44:54.180Z,19.26
2022-12-03T23:47:20.526Z,19.30
2022-12-03T23:49:46.848Z,19.28
2022-12-03T23:52:13.264Z,19.29
2022-12-03T23:54:40.849Z,19.31
2022-12-03T23:57:07.108Z,19.29
2022-12-03T23:59:33.438Z,19.31
